createdAt,value
2019-02-14T00:01:28.018Z,7.10
2019-02-14T00:03:55.814Z,7.10
2019-02-14T00:06:24.073Z,7.10
2019-02-14T00:08:51.947Z,7.10
2019-02-14T00:11:19.909Z,7.10
2019-02-14T00:13:47.789Z,7.10
2019-02-14T00:16:15.671Z,7.10
2019-02-14T00:18:43.505Z,7.10
2019-02-14T00:21:11.402Z,7.10
2019-02-14T00:23:39.266Z,7.10
2019-02-14T00:26:07.142Z,7.10
2019-02-14T00:28:34.981Z,7.10
2019-02-14T00:31:02.873Z,7.10
2019-02-14T00:33:30.630Z,7.10
2019-02-14T00:35:58.505Z,7.10
2019-02-14T00:38:26.421Z,7.10
2019-02-14T00:40:54.242Z,7.10
2019-02-14T00:43:22.361Z,7.10
2019-02-14T00:45:50.174Z,7.10
2019-02-14T00:48:18.026Z,7.00
2019-02-14T00:50:45.914Z,7.00
2019-02-14T00:53:13.841Z,7.00
2019-02-14T00:55:41.645Z,7.00
2019-02-14T00:58:09.511Z,7.10
2019-02-14T01:00:37.391Z,7.10
2019-02-14T01:03:05.234Z,7.10
2019-02-14T01:05:33.907Z,7.10
2019-02-14T01:08:02.173Z,7.10
2019-02-14T01:10:29.970Z,7.10
2019-02-14T01:12:57.831Z,7.10
2019-02-14T01:15:26.285Z,7.10
2019-02-14T01:17:54.075Z,7.10
2019-02-14T01:20:21.958Z,7.10
2019-02-14T01:22:49.802Z,7.10
2019-02-14T01:25:17.674Z,7.00
2019-02-14T01:27:45.459Z,7.00
2019-02-14T01:30:13.300Z,7.10
2019-02-14T01:32:41.078Z,7.10
2019-02-14T01:35:09.129Z,7.10
2019-02-14T01:37:36.959Z,7.00
2019-02-14T01:40:05.113Z,7.00
2019-02-14T01:42:32.962Z,7.00
2019-02-14T01:45:01.094Z,7.00
2019-02-14T01:47:28.887Z,7.00
2019-02-14T01:49:56.657Z,7.00
2019-02-14T01:52:24.555Z,7.00
2019-02-14T01:54:52.400Z,7.00
2019-02-14T01:57:20.271Z,7.00
2019-02-14T01:59:48.212Z,7.00
2019-02-14T02:02:16.008Z,7.00
2019-02-14T02:04:43.882Z,7.00
2019-02-14T02:07:11.931Z,7.00
2019-02-14T02:09:39.751Z,7.00
2019-02-14T02:12:07.944Z,7.00
2019-02-14T02:14:35.763Z,7.00
2019-02-14T02:17:03.606Z,7.00
2019-02-14T02:19:31.481Z,7.00
2019-02-14T02:21:59.337Z,7.00
2019-02-14T02:24:27.118Z,7.10
2019-02-14T02:26:54.983Z,7.00
2019-02-14T02:29:23.162Z,7.10
2019-02-14T02:31:50.994Z,7.00
2019-02-14T02:34:18.813Z,7.10
2019-02-14T02:36:46.645Z,7.10
2019-02-14T02:39:14.530Z,7.10
2019-02-14T02:41:42.385Z,7.00
2019-02-14T02:44:10.151Z,7.10
2019-02-14T02:46:37.949Z,7.00
2019-02-14T02:49:05.723Z,7.10
2019-02-14T02:51:33.592Z,7.10
2019-02-14T02:54:01.494Z,7.10
2019-02-14T02:56:29.299Z,7.00
2019-02-14T02:58:57.157Z,7.10
2019-02-14T03:01:24.963Z,7.10
2019-02-14T03:03:52.735Z,7.10
2019-02-14T03:06:20.575Z,7.10
2019-02-14T03:08:48.706Z,7.10
2019-02-14T03:11:16.511Z,7.10
2019-02-14T03:13:44.359Z,7.10
2019-02-14T03:16:12.242Z,7.20
2019-02-14T03:18:40.121Z,7.10
2019-02-14T03:21:07.974Z,7.10
2019-02-14T03:23:35.830Z,7.10
2019-02-14T03:26:03.790Z,7.10
2019-02-14T03:28:31.550Z,7.10
2019-02-14T03:30:59.348Z,7.10
2019-02-14T03:33:27.275Z,7.10
2019-02-14T03:35:55.082Z,7.10
2019-02-14T03:38:22.931Z,7.10
2019-02-14T03:40:50.802Z,7.00
2019-02-14T03:43:18.571Z,7.00
2019-02-14T03:45:46.526Z,7.00
2019-02-14T03:48:14.791Z,6.90
2019-02-14T03:50:42.574Z,6.90
2019-02-14T03:53:10.440Z,6.90
2019-02-14T03:55:38.422Z,6.90
2019-02-14T03:58:06.356Z,6.90
2019-02-14T04:00:34.235Z,6.90
2019-02-14T04:03:02.116Z,6.80
2019-02-14T04:05:29.966Z,6.80
2019-02-14T04:07:57.851Z,6.80
2019-02-14T04:10:25.726Z,6.80
2019-02-14T04:12:53.620Z,6.70
2019-02-14T04:15:21.442Z,6.70
2019-02-14T04:17:49.732Z,6.70
2019-02-14T04:20:17.595Z,6.70
2019-02-14T04:22:45.482Z,6.70
2019-02-14T04:25:13.327Z,6.70
2019-02-14T04:27:41.247Z,6.70
2019-02-14T04:30:09.599Z,6.80
2019-02-14T04:32:37.398Z,6.80
2019-02-14T04:35:05.454Z,6.80
2019-02-14T04:37:33.290Z,6.80
2019-02-14T04:40:01.146Z,6.80
2019-02-14T04:42:29.040Z,6.80
2019-02-14T04:44:56.806Z,6.80
2019-02-14T04:47:24.600Z,6.80
2019-02-14T04:49:52.371Z,6.90
2019-02-14T04:52:20.187Z,6.90
2019-02-14T04:54:47.958Z,6.90
2019-02-14T04:57:15.752Z,6.90
2019-02-14T04:59:43.570Z,6.90
2019-02-14T05:02:11.437Z,6.90
2019-02-14T05:04:39.204Z,6.90
2019-02-14T05:07:07.285Z,6.90
2019-02-14T05:09:35.144Z,6.90
2019-02-14T05:12:02.943Z,6.90
2019-02-14T05:14:30.781Z,7.00
2019-02-14T05:16:58.575Z,7.00
2019-02-14T05:19:26.360Z,7.00
2019-02-14T05:21:54.198Z,7.00
2019-02-14T05:24:21.975Z,7.00
2019-02-14T05:26:49.814Z,7.00
2019-02-14T05:29:17.966Z,7.10
2019-02-14T05:31:45.759Z,7.10
2019-02-14T05:34:13.601Z,7.00
2019-02-14T05:36:41.494Z,7.00
2019-02-14T05:39:09.263Z,7.00
2019-02-14T05:41:37.036Z,7.00
2019-02-14T05:44:04.881Z,7.10
2019-02-14T05:46:32.755Z,7.10
2019-02-14T05:49:00.550Z,7.10
2019-02-14T05:51:28.378Z,7.10
2019-02-14T05:53:56.268Z,7.10
2019-02-14T05:56:24.195Z,7.10
2019-02-14T05:58:51.998Z,7.10
2019-02-14T06:01:20.225Z,7.10
2019-02-14T06:03:48.029Z,7.10
2019-02-14T06:06:16.036Z,7.10
2019-02-14T06:08:43.828Z,7.10
2019-02-14T06:11:11.604Z,7.20
2019-02-14T06:13:39.611Z,7.20
2019-02-14T06:16:07.690Z,7.20
2019-02-14T06:18:35.478Z,7.10
2019-02-14T06:21:03.274Z,7.10
2019-02-14T06:23:31.260Z,7.00
2019-02-14T06:25:59.021Z,7.00
2019-02-14T06:28:26.910Z,7.00
2019-02-14T06:30:54.842Z,7.00
2019-02-14T06:33:22.858Z,7.10
2019-02-14T06:35:51.103Z,7.10
2019-02-14T06:38:19.190Z,7.10
2019-02-14T06:40:47.263Z,7.10
2019-02-14T06:43:15.552Z,7.10
2019-02-14T06:45:43.751Z,7.00
2019-02-14T06:48:12.120Z,7.10
2019-02-14T06:50:40.130Z,7.10
2019-02-14T06:53:08.318Z,7.20
2019-02-14T06:55:36.312Z,7.20
2019-02-14T06:58:04.197Z,7.10
2019-02-14T07:00:32.045Z,7.10
2019-02-14T07:02:59.931Z,7.20
2019-02-14T07:05:28.043Z,7.20
2019-02-14T07:07:55.867Z,7.20
2019-02-14T07:10:23.719Z,7.20
2019-02-14T07:12:51.683Z,7.30
2019-02-14T07:15:19.455Z,7.40
2019-02-14T07:17:47.318Z,7.30
2019-02-14T07:20:15.128Z,7.40
2019-02-14T07:22:42.982Z,7.40
2019-02-14T07:25:10.854Z,7.40
2019-02-14T07:27:38.685Z,7.40
2019-02-14T07:30:08.045Z,7.40
2019-02-14T07:32:35.873Z,7.50
2019-02-14T07:35:04.150Z,7.50
2019-02-14T07:37:31.990Z,7.60
2019-02-14T07:39:59.883Z,7.60
2019-02-14T07:42:27.730Z,7.70
2019-02-14T07:44:55.620Z,7.70
2019-02-14T07:47:23.468Z,7.80
2019-02-14T07:49:51.451Z,7.80
2019-02-14T07:52:24.998Z,7.80
2019-02-14T07:54:48.841Z,7.80
2019-02-14T07:57:16.607Z,7.80
2019-02-14T07:59:44.399Z,7.80
2019-02-14T08:02:12.295Z,7.80
2019-02-14T08:04:40.194Z,7.90
2019-02-14T08:07:08.052Z,7.90
2019-02-14T08:09:35.927Z,7.90
2019-02-14T08:12:03.870Z,7.80
2019-02-14T08:14:31.850Z,7.80
2019-02-14T08:16:59.721Z,7.90
2019-02-14T08:19:27.614Z,7.90
2019-02-14T08:21:55.383Z,7.90
2019-02-14T08:24:23.502Z,7.90
2019-02-14T08:26:51.285Z,7.90
2019-02-14T08:29:38.342Z,7.80
2019-02-14T08:32:06.139Z,7.90
2019-02-14T08:34:33.959Z,8.00
2019-02-14T08:37:01.827Z,8.10
2019-02-14T08:39:29.693Z,8.10
2019-02-14T08:41:57.466Z,8.10
2019-02-14T08:44:25.340Z,8.20
2019-02-14T08:46:53.180Z,8.20
2019-02-14T08:49:21.071Z,8.30
2019-02-14T08:51:48.822Z,8.40
2019-02-14T08:54:16.700Z,8.60
2019-02-14T08:56:44.547Z,8.70
2019-02-14T08:59:12.450Z,8.70
2019-02-14T09:01:40.345Z,8.70
2019-02-14T09:04:08.167Z,8.70
2019-02-14T09:06:35.999Z,8.80
2019-02-14T09:09:05.351Z,8.80
2019-02-14T09:11:33.188Z,8.70
2019-02-14T09:14:01.058Z,8.80
2019-02-14T09:16:29.179Z,8.90
2019-02-14T09:18:56.998Z,9.00
2019-02-14T09:21:24.767Z,9.10
2019-02-14T09:23:52.536Z,9.10
2019-02-14T09:26:20.404Z,9.20
2019-02-14T09:28:48.168Z,9.30
2019-02-14T09:31:15.954Z,9.30
2019-02-14T09:33:43.718Z,9.40
2019-02-14T09:36:11.511Z,9.40
2019-02-14T09:38:39.318Z,9.50
2019-02-14T09:41:07.591Z,9.50
2019-02-14T09:43:35.367Z,9.60
2019-02-14T09:48:30.605Z,9.80
2019-02-14T09:50:58.463Z,10.00
2019-02-14T09:53:26.246Z,10.10
2019-02-14T09:55:54.107Z,10.20
2019-02-14T09:58:22.696Z,10.20
2019-02-14T10:00:50.660Z,10.30
2019-02-14T10:03:18.495Z,10.30
2019-02-14T10:05:46.378Z,10.40
2019-02-14T10:08:14.601Z,10.40
2019-02-14T10:10:42.432Z,10.40
2019-02-14T10:13:10.280Z,10.30
2019-02-14T10:15:38.234Z,10.10
2019-02-14T10:18:06.010Z,10.00
2019-02-14T10:20:33.890Z,10.10
2019-02-14T10:23:01.739Z,10.10
2019-02-14T10:25:29.617Z,10.10
2019-02-14T10:27:57.469Z,10.20
2019-02-14T10:30:25.374Z,10.30
2019-02-14T10:32:53.213Z,10.30
2019-02-14T10:35:21.170Z,10.20
2019-02-14T10:37:49.046Z,10.30
2019-02-14T10:40:16.936Z,10.10
2019-02-14T10:42:44.781Z,10.10
2019-02-14T10:45:13.658Z,10.30
2019-02-14T10:47:41.435Z,10.50
2019-02-14T10:50:09.754Z,10.50
2019-02-14T10:52:37.530Z,10.50
2019-02-14T10:55:05.773Z,10.40
2019-02-14T10:57:33.632Z,10.30
2019-02-14T11:00:01.978Z,10.30
2019-02-14T11:02:29.790Z,10.20
2019-02-14T11:04:57.660Z,10.10
2019-02-14T11:07:25.450Z,10.10
2019-02-14T11:09:53.252Z,10.20
2019-02-14T11:12:21.853Z,10.10
2019-02-14T11:14:49.718Z,10.00
2019-02-14T11:17:17.504Z,9.90
2019-02-14T11:19:45.373Z,9.90
2019-02-14T11:22:13.245Z,9.80
2019-02-14T11:24:41.094Z,9.80
2019-02-14T11:27:08.968Z,9.70
2019-02-14T11:29:36.746Z,9.60
2019-02-14T11:32:04.543Z,9.60
2019-02-14T11:34:32.320Z,9.70
2019-02-14T11:37:00.127Z,9.90
2019-02-14T11:39:27.902Z,10.10
2019-02-14T11:41:55.693Z,10.20
2019-02-14T11:44:23.522Z,10.30
2019-02-14T11:46:51.965Z,10.40
2019-02-14T11:49:19.851Z,10.50
2019-02-14T11:51:47.634Z,10.70
2019-02-14T11:54:15.412Z,10.80
2019-02-14T11:56:43.289Z,10.80
2019-02-14T11:59:11.061Z,10.80
2019-02-14T12:01:38.914Z,10.90
2019-02-14T12:04:06.691Z,10.90
2019-02-14T12:06:34.504Z,10.90
2019-02-14T12:09:04.320Z,10.90
2019-02-14T12:11:32.113Z,10.80
2019-02-14T12:13:59.900Z,10.70
2019-02-14T12:16:27.761Z,10.50
2019-02-14T12:18:55.607Z,10.50
2019-02-14T12:21:23.408Z,10.40
2019-02-14T12:23:51.178Z,10.30
2019-02-14T12:26:19.039Z,10.20
2019-02-14T12:28:46.805Z,10.20
2019-02-14T12:31:14.654Z,10.30
2019-02-14T12:33:42.499Z,10.30
2019-02-14T12:36:10.307Z,10.30
2019-02-14T12:38:38.136Z,10.40
2019-02-14T12:41:06.023Z,10.30
2019-02-14T12:43:33.875Z,10.40
2019-02-14T12:46:01.728Z,10.50
2019-02-14T12:48:29.607Z,10.40
2019-02-14T12:50:57.404Z,10.30
2019-02-14T12:53:25.194Z,10.30
2019-02-14T12:55:53.016Z,10.40
2019-02-14T12:58:20.808Z,10.40
2019-02-14T13:00:48.615Z,10.40
2019-02-14T13:03:16.399Z,10.40
2019-02-14T13:05:44.279Z,10.30
2019-02-14T13:08:12.076Z,10.40
2019-02-14T13:10:39.918Z,10.40
2019-02-14T13:13:07.767Z,10.40
2019-02-14T13:15:35.559Z,10.50
2019-02-14T13:18:03.338Z,10.50
2019-02-14T13:20:31.188Z,10.40
2019-02-14T13:22:59.029Z,10.40
2019-02-14T13:25:26.907Z,10.40
2019-02-14T13:27:54.701Z,10.40
2019-02-14T13:30:22.613Z,10.50
2019-02-14T13:32:50.608Z,10.50
2019-02-14T13:35:18.453Z,10.50
2019-02-14T13:37:46.247Z,10.50
2019-02-14T13:40:14.033Z,10.50
2019-02-14T13:42:41.882Z,10.60
2019-02-14T13:45:10.606Z,10.60
2019-02-14T13:47:38.393Z,10.50
2019-02-14T13:50:06.542Z,10.50
2019-02-14T13:52:36.169Z,10.40
2019-02-14T13:55:04.437Z,10.30
2019-02-14T13:57:32.276Z,10.40
2019-02-14T14:00:00.322Z,10.40
2019-02-14T14:02:28.278Z,10.50
2019-02-14T14:04:56.045Z,10.40
2019-02-14T14:07:23.937Z,10.50
2019-02-14T14:12:19.564Z,10.50
2019-02-14T14:14:47.700Z,10.50
2019-02-14T14:17:15.910Z,10.40
2019-02-14T14:19:43.692Z,10.40
2019-02-14T14:22:11.506Z,10.40
2019-02-14T14:24:39.276Z,10.40
2019-02-14T14:27:07.082Z,10.40
2019-02-14T14:29:34.935Z,10.40
2019-02-14T14:32:02.814Z,10.40
2019-02-14T14:34:30.594Z,10.40
2019-02-14T14:36:58.393Z,10.40
2019-02-14T14:39:26.166Z,10.40
2019-02-14T14:41:53.947Z,10.40
2019-02-14T14:44:32.782Z,10.30
2019-02-14T14:47:03.336Z,10.30
2019-02-14T14:49:31.187Z,10.40
2019-02-14T14:51:59.066Z,10.40
2019-02-14T14:54:26.915Z,10.40
2019-02-14T14:56:54.981Z,10.40
2019-02-14T14:59:22.798Z,10.40
2019-02-14T15:01:50.582Z,10.30
2019-02-14T15:04:18.359Z,10.30
2019-02-14T15:06:46.127Z,10.20
2019-02-14T15:09:13.914Z,10.20
2019-02-14T15:11:41.802Z,10.20
2019-02-14T15:14:09.937Z,10.10
2019-02-14T15:16:37.718Z,10.10
2019-02-14T15:19:05.585Z,10.10
2019-02-14T15:21:34.284Z,10.00
2019-02-14T15:24:02.184Z,10.10
2019-02-14T15:26:29.954Z,10.10
2019-02-14T15:28:57.741Z,10.00
2019-02-14T15:31:25.518Z,10.00
2019-02-14T15:33:53.303Z,9.90
2019-02-14T15:36:21.723Z,9.90
2019-02-14T15:38:50.790Z,9.80
2019-02-14T15:41:18.647Z,9.80
2019-02-14T15:43:46.527Z,9.80
2019-02-14T15:46:14.377Z,9.80
2019-02-14T15:48:42.265Z,9.70
2019-02-14T15:51:10.118Z,9.70
2019-02-14T15:53:37.906Z,9.60
2019-02-14T15:56:07.800Z,9.60
2019-02-14T15:58:35.927Z,9.50
2019-02-14T16:01:03.809Z,9.50
2019-02-14T16:03:31.639Z,9.40
2019-02-14T16:05:59.492Z,9.40
2019-02-14T16:08:27.622Z,9.30
2019-02-14T16:10:55.979Z,9.10
2019-02-14T16:13:24.015Z,9.10
2019-02-14T16:15:53.746Z,9.00
2019-02-14T16:18:23.135Z,9.00
2019-02-14T16:20:50.980Z,8.90
2019-02-14T16:23:18.863Z,8.90
2019-02-14T16:25:46.711Z,9.00
2019-02-14T16:28:14.599Z,8.90
2019-02-14T16:30:42.454Z,8.80
2019-02-14T16:33:10.327Z,8.60
2019-02-14T16:35:38.254Z,8.60
2019-02-14T16:38:06.067Z,8.50
2019-02-14T16:40:38.501Z,8.40
2019-02-14T16:43:03.956Z,8.40
2019-02-14T16:45:31.879Z,8.30
2019-02-14T16:47:59.690Z,8.20
2019-02-14T16:50:27.806Z,8.20
2019-02-14T16:52:55.937Z,8.10
2019-02-14T16:55:23.774Z,8.10
2019-02-14T16:57:51.665Z,8.00
2019-02-14T17:00:19.514Z,7.90
2019-02-14T17:02:47.393Z,7.80
2019-02-14T17:05:15.257Z,7.80
2019-02-14T17:07:43.096Z,7.80
2019-02-14T17:10:11.009Z,7.80
2019-02-14T17:12:38.858Z,7.70
2019-02-14T17:15:07.483Z,7.80
2019-02-14T17:17:35.240Z,7.90
2019-02-14T17:20:03.038Z,7.90
2019-02-14T17:22:31.098Z,7.80
2019-02-14T17:24:58.896Z,7.70
2019-02-14T17:27:26.781Z,7.70
2019-02-14T17:29:54.639Z,7.60
2019-02-14T17:32:22.518Z,7.50
2019-02-14T17:34:50.286Z,7.50
2019-02-14T17:37:18.270Z,7.40
2019-02-14T17:39:46.118Z,7.60
2019-02-14T17:42:13.992Z,7.80
2019-02-14T17:44:41.843Z,7.80
2019-02-14T17:47:09.726Z,7.70
2019-02-14T17:49:37.577Z,7.60
2019-02-14T17:52:05.471Z,7.60
2019-02-14T17:54:33.311Z,7.50
2019-02-14T17:57:01.214Z,7.40
2019-02-14T17:59:29.059Z,7.30
2019-02-14T18:01:57.110Z,7.20
2019-02-14T18:04:25.013Z,7.20
2019-02-14T18:06:52.912Z,7.30
2019-02-14T18:09:20.720Z,7.40
2019-02-14T18:11:49.551Z,7.50
2019-02-14T18:14:17.381Z,7.50
2019-02-14T18:16:45.269Z,7.60
2019-02-14T18:19:13.122Z,7.60
2019-02-14T18:21:40.983Z,7.50
2019-02-14T18:24:09.216Z,7.40
2019-02-14T18:26:37.018Z,7.40
2019-02-14T18:29:04.943Z,7.50
2019-02-14T18:31:32.755Z,7.50
2019-02-14T18:34:00.991Z,7.60
2019-02-14T18:36:28.805Z,7.60
2019-02-14T18:38:56.708Z,7.60
2019-02-14T18:41:25.388Z,7.60
2019-02-14T18:43:53.449Z,7.50
2019-02-14T18:46:21.291Z,7.40
2019-02-14T18:48:49.218Z,7.40
2019-02-14T18:51:17.106Z,7.30
2019-02-14T18:53:44.929Z,7.20
2019-02-14T18:56:12.762Z,7.20
2019-02-14T18:58:40.742Z,7.10
2019-02-14T19:01:08.607Z,7.10
2019-02-14T19:03:36.478Z,7.30
2019-02-14T19:06:04.332Z,7.30
2019-02-14T19:08:32.424Z,7.20
2019-02-14T19:11:00.266Z,7.30
2019-02-14T19:13:28.320Z,7.40
2019-02-14T19:15:56.107Z,7.40
2019-02-14T19:18:24.000Z,7.30
2019-02-14T19:20:51.922Z,7.20
2019-02-14T19:23:24.021Z,7.20
2019-02-14T19:25:49.564Z,7.20
2019-02-14T19:28:17.415Z,7.20
2019-02-14T19:30:45.442Z,7.10
2019-02-14T19:33:13.241Z,7.00
2019-02-14T19:35:41.015Z,7.00
2019-02-14T19:38:08.959Z,7.00
2019-02-14T19:40:36.840Z,7.00
2019-02-14T19:43:04.707Z,6.90
2019-02-14T19:45:36.690Z,6.90
2019-02-14T19:48:02.411Z,7.00
2019-02-14T19:50:30.251Z,7.00
2019-02-14T19:52:58.140Z,7.00
2019-02-14T19:57:53.442Z,6.90
2019-02-14T20:00:21.343Z,6.90
2019-02-14T20:02:49.175Z,6.80
2019-02-14T20:05:17.557Z,6.70
2019-02-14T20:07:45.338Z,6.70
2019-02-14T20:10:13.891Z,6.60
2019-02-14T20:12:42.144Z,6.60
2019-02-14T20:15:11.137Z,6.50
2019-02-14T20:17:38.979Z,6.50
2019-02-14T20:20:07.324Z,6.60
2019-02-14T20:22:35.197Z,6.70
2019-02-14T20:25:03.150Z,6.60
2019-02-14T20:27:31.035Z,6.50
2019-02-14T20:29:58.928Z,6.50
2019-02-14T20:32:26.775Z,6.40
2019-02-14T20:34:54.667Z,6.50
2019-02-14T20:37:22.499Z,6.40
2019-02-14T20:39:50.371Z,6.30
2019-02-14T20:42:18.237Z,6.30
2019-02-14T20:44:46.107Z,6.30
2019-02-14T20:47:13.976Z,6.30
2019-02-14T20:49:41.846Z,6.30
2019-02-14T20:52:09.896Z,6.20
2019-02-14T20:54:37.801Z,6.10
2019-02-14T20:57:05.647Z,6.00
2019-02-14T20:59:33.526Z,6.00
2019-02-14T21:02:01.389Z,5.90
2019-02-14T21:04:29.333Z,5.90
2019-02-14T21:06:57.208Z,5.90
2019-02-14T21:09:25.207Z,5.90
2019-02-14T21:11:54.994Z,5.90
2019-02-14T21:14:22.982Z,5.80
2019-02-14T21:19:18.372Z,5.60
2019-02-14T21:21:46.235Z,5.60
2019-02-14T21:24:14.043Z,5.70
2019-02-14T21:26:42.005Z,5.60
2019-02-14T21:29:09.884Z,5.50
2019-02-14T21:31:37.735Z,5.40
2019-02-14T21:34:05.959Z,5.50
2019-02-14T21:36:33.797Z,5.80
2019-02-14T21:39:01.644Z,5.80
2019-02-14T21:41:29.522Z,5.90
2019-02-14T21:43:57.374Z,5.80
2019-02-14T21:46:25.269Z,5.70
2019-02-14T21:48:53.104Z,5.70
2019-02-14T21:51:21.013Z,5.70
2019-02-14T21:53:48.782Z,5.70
2019-02-14T21:56:16.635Z,5.80
2019-02-14T21:58:44.480Z,5.80
2019-02-14T22:01:12.953Z,5.80
2019-02-14T22:03:40.857Z,5.70
2019-02-14T22:06:08.920Z,5.60
2019-02-14T22:08:36.764Z,5.50
2019-02-14T22:11:04.701Z,5.40
2019-02-14T22:13:32.495Z,5.30
2019-02-14T22:16:00.291Z,5.40
2019-02-14T22:18:28.277Z,5.30
2019-02-14T22:20:56.131Z,5.30
2019-02-14T22:23:23.970Z,5.20
2019-02-14T22:25:51.972Z,5.20
2019-02-14T22:28:19.793Z,5.10
2019-02-14T22:30:47.593Z,5.10
2019-02-14T22:33:15.439Z,5.10
2019-02-14T22:35:43.581Z,5.10
2019-02-14T22:38:12.555Z,5.10
2019-02-14T22:40:40.350Z,5.10
2019-02-14T22:43:08.134Z,5.20
2019-02-14T22:45:36.045Z,5.20
2019-02-14T22:48:03.862Z,5.20
2019-02-14T22:50:31.737Z,5.20
2019-02-14T22:52:59.599Z,5.10
2019-02-14T22:55:27.503Z,5.20
2019-02-14T22:57:55.358Z,5.10
2019-02-14T23:00:30.680Z,5.10
2019-02-14T23:02:58.627Z,5.10
2019-02-14T23:05:26.603Z,5.10
2019-02-14T23:07:54.387Z,5.10
2019-02-14T23:10:22.271Z,5.20
2019-02-14T23:12:55.711Z,5.10
2019-02-14T23:15:19.738Z,5.10
2019-02-14T23:17:47.666Z,5.10
2019-02-14T23:20:15.478Z,5.00
2019-02-14T23:22:43.357Z,5.00
2019-02-14T23:25:11.242Z,5.00
2019-02-14T23:27:39.123Z,5.00
2019-02-14T23:30:07.323Z,5.00
2019-02-14T23:32:35.519Z,5.00
2019-02-14T23:35:03.392Z,5.00
2019-02-14T23:37:31.245Z,4.90
2019-02-14T23:39:59.199Z,4.90
2019-02-14T23:42:27.006Z,4.90
2019-02-14T23:44:54.849Z,4.90
2019-02-14T23:47:22.742Z,4.90
2019-02-14T23:49:50.600Z,4.90
2019-02-14T23:52:18.480Z,4.90
2019-02-14T23:54:46.331Z,4.90
2019-02-14T23:57:14.123Z,4.80
2019-02-14T23:59:41.960Z,4.80
